CheckWX is a tool to help pilots better visualize weather data.  It is not intended as a substitute for an official pre-flight weather briefing.

19:16:40 UTC

KBIV METAR
West Michigan Regional Airport
Holland, Michigan, USA
Current

24 mins ago

KBIV 261853Z AUTO 26005KT 10SM OVC060 22/14 A3005 RMK AO2 SLP174 T02220139
Observed
May-26 @ 18:53 UTC
Wind
  • 260° at 5 KTS
Visibility
10 SM
Flight Rules
VFR
Cloud Levels
  • Overcast at 6,000' AGL
Temperature
22°C / 72°F
Dewpoint
14°C / 57°F
Humidity
61%
Altimeter
30.05" Hg
Pressure
1017.62 hPa
Previous

1 hour ago

KBIV 261753Z AUTO VRB04KT 10SM FEW090 BKN110 22/15 A3003 RMK AO2 SLP167 60008 T02220150 10222 20172 50001
Observed
May-26 @ 17:53 UTC
Wind
  • Variable at 4 KTS
Visibility
10 SM
Flight Rules
VFR
Cloud Levels
  • Few at 9,000' AGL
  • Broken at 11,000' AGL
Temperature
22°C / 72°F
Dewpoint
15°C / 59°F
Humidity
65%
Altimeter
30.03" Hg
Pressure
1016.92 hPa
Previous

2 hours ago

KBIV 261653Z AUTO 07003KT 10SM FEW110 21/15 A3003 RMK AO2 SLP167 T02060150
Observed
May-26 @ 16:53 UTC
Wind
  • 070° at 3 KTS
Visibility
10 SM
Flight Rules
VFR
Cloud Levels
  • Few at 11,000' AGL
Temperature
21°C / 70°F
Dewpoint
15°C / 59°F
Humidity
69%
Altimeter
30.03" Hg
Pressure
1016.92 hPa